createdAt,value
2023-03-07T00:02:18.427Z,9.73
2023-03-07T00:04:45.461Z,10.07
2023-03-07T00:07:11.190Z,9.00
2023-03-07T00:09:36.912Z,9.23
2023-03-07T00:12:03.655Z,8.17
2023-03-07T00:14:29.477Z,9.67
2023-03-07T00:16:55.195Z,9.83
2023-03-07T00:19:20.949Z,9.83
2023-03-07T00:21:46.712Z,9.73
2023-03-07T00:24:12.490Z,9.83
2023-03-07T00:26:39.118Z,10.30
2023-03-07T00:29:06.830Z,9.70
2023-03-07T00:31:33.089Z,11.03
2023-03-07T00:33:59.077Z,11.10
2023-03-07T00:36:25.142Z,10.67
2023-03-07T00:38:51.451Z,10.23
2023-03-07T00:41:18.483Z,12.10
2023-03-07T00:43:46.357Z,10.90
2023-03-07T00:46:12.695Z,11.97
2023-03-07T00:48:39.388Z,12.20
2023-03-07T00:51:06.151Z,10.93
2023-03-07T00:53:31.905Z,11.63
2023-03-07T00:56:01.845Z,10.40
2023-03-07T00:58:28.771Z,11.25
2023-03-07T01:00:54.653Z,10.30
2023-03-07T01:03:20.870Z,10.67
2023-03-07T01:05:46.869Z,10.70
2023-03-07T01:08:12.952Z,11.00
2023-03-07T01:10:38.691Z,10.93
2023-03-07T01:13:04.571Z,10.97
2023-03-07T01:15:30.718Z,9.53
2023-03-07T01:17:56.589Z,9.80
2023-03-07T01:20:22.358Z,10.17
2023-03-07T01:22:48.084Z,11.47
2023-03-07T01:25:13.829Z,10.17
2023-03-07T01:27:39.591Z,10.80
2023-03-07T01:30:06.603Z,10.40
2023-03-07T01:32:32.513Z,11.70
2023-03-07T01:34:58.395Z,11.70
2023-03-07T01:37:24.100Z,10.90
2023-03-07T01:39:50.785Z,11.40
2023-03-07T01:42:16.505Z,12.77
2023-03-07T01:45:01.315Z,12.40
2023-03-07T01:47:27.255Z,13.67
2023-03-07T01:49:53.690Z,12.80
2023-03-07T01:52:36.814Z,13.53
2023-03-07T01:55:05.567Z,13.93
2023-03-07T01:57:33.021Z,15.43
2023-03-07T02:00:00.467Z,14.43
2023-03-07T02:02:27.086Z,13.47
2023-03-07T02:05:11.392Z,14.27
2023-03-07T02:07:40.105Z,15.40
2023-03-07T02:10:06.411Z,16.17
2023-03-07T02:12:32.349Z,16.70
2023-03-07T02:14:58.091Z,15.63
2023-03-07T02:17:24.254Z,17.10
2023-03-07T02:20:01.557Z,18.03
2023-03-07T02:22:27.906Z,16.13
2023-03-07T02:24:53.638Z,16.77
2023-03-07T02:27:19.491Z,17.63
2023-03-07T02:29:45.434Z,17.07
2023-03-07T02:32:11.282Z,16.83
2023-03-07T02:34:37.134Z,17.17
2023-03-07T02:37:15.722Z,17.13
2023-03-07T02:39:42.517Z,16.93
2023-03-07T02:42:09.527Z,17.07
2023-03-07T02:44:35.260Z,17.73
2023-03-07T02:47:00.991Z,16.87
2023-03-07T02:49:26.699Z,18.43
2023-03-07T02:51:56.915Z,17.10
2023-03-07T02:54:22.962Z,16.63
2023-03-07T02:56:48.676Z,17.53
2023-03-07T02:59:14.385Z,18.73
2023-03-07T03:01:40.158Z,17.03
2023-03-07T03:04:05.876Z,17.50
2023-03-07T03:06:31.601Z,18.50
2023-03-07T03:08:57.341Z,17.80
2023-03-07T03:11:23.051Z,19.37
2023-03-07T03:13:48.846Z,16.73
2023-03-07T03:16:14.613Z,17.20
2023-03-07T03:18:40.571Z,18.50
2023-03-07T03:21:07.531Z,18.67
2023-03-07T03:23:33.252Z,17.93
2023-03-07T03:25:59.544Z,17.00
2023-03-07T03:28:25.319Z,18.07
2023-03-07T03:30:58.641Z,19.50
2023-03-07T03:33:24.845Z,17.27
2023-03-07T03:35:50.567Z,16.67
2023-03-07T03:38:16.455Z,17.33
2023-03-07T03:40:42.174Z,17.83
2023-03-07T03:43:07.934Z,15.97
2023-03-07T03:45:33.652Z,16.23
2023-03-07T03:47:59.350Z,16.00
2023-03-07T03:50:25.080Z,17.47
2023-03-07T03:52:50.826Z,19.53
2023-03-07T03:55:16.563Z,15.70
2023-03-07T03:57:42.389Z,18.00
2023-03-07T04:00:08.656Z,14.73
2023-03-07T04:02:34.579Z,15.43
2023-03-07T04:05:00.587Z,15.37
2023-03-07T04:07:28.481Z,15.03
2023-03-07T04:09:54.287Z,17.27
2023-03-07T04:12:20.071Z,16.27
2023-03-07T04:14:45.772Z,16.63
2023-03-07T04:17:11.630Z,17.80
2023-03-07T04:19:37.662Z,15.23
2023-03-07T04:22:03.516Z,16.53
2023-03-07T04:24:29.204Z,17.13
2023-03-07T04:26:54.920Z,16.27
2023-03-07T04:29:20.639Z,15.50
2023-03-07T04:31:46.404Z,15.57
2023-03-07T04:34:12.160Z,17.53
2023-03-07T04:36:38.030Z,15.37
2023-03-07T04:39:04.067Z,17.17
2023-03-07T04:41:30.102Z,17.07
2023-03-07T04:43:55.926Z,17.27
2023-03-07T04:46:21.833Z,18.73
2023-03-07T04:48:47.667Z,17.27
2023-03-07T04:51:13.948Z,16.63
2023-03-07T04:53:39.835Z,17.47
2023-03-07T04:56:07.610Z,16.50
2023-03-07T04:58:34.106Z,16.47
2023-03-07T05:01:00.517Z,16.60
2023-03-07T05:03:27.310Z,17.43
2023-03-07T05:05:53.460Z,16.93
2023-03-07T05:08:19.647Z,15.80
2023-03-07T05:10:45.593Z,15.73
2023-03-07T05:13:11.603Z,15.93
2023-03-07T05:15:37.379Z,16.87
2023-03-07T05:18:03.224Z,13.43
2023-03-07T05:20:29.159Z,17.23
2023-03-07T05:22:57.883Z,17.40
2023-03-07T05:25:23.900Z,15.53
2023-03-07T05:27:49.964Z,15.60
2023-03-07T05:30:16.235Z,15.00
2023-03-07T05:32:42.202Z,15.37
2023-03-07T05:35:14.405Z,16.07
2023-03-07T05:37:40.214Z,14.37
2023-03-07T05:40:09.296Z,15.37
2023-03-07T05:42:35.357Z,13.70
2023-03-07T05:45:01.499Z,15.00
2023-03-07T05:47:27.446Z,13.53
2023-03-07T05:49:53.400Z,14.27
2023-03-07T05:52:20.120Z,14.00
2023-03-07T05:54:45.926Z,13.43
2023-03-07T05:57:11.860Z,14.77
2023-03-07T05:59:37.964Z,13.27
2023-03-07T06:02:03.778Z,14.40
2023-03-07T06:04:29.624Z,12.63
2023-03-07T06:06:55.686Z,14.00
2023-03-07T06:09:24.863Z,13.10
2023-03-07T06:11:58.012Z,13.10
2023-03-07T06:14:24.333Z,14.43
2023-03-07T06:16:50.299Z,12.90
2023-03-07T06:19:25.723Z,12.80
2023-03-07T06:21:56.544Z,13.83
2023-03-07T06:35:28.180Z,12.77
2023-03-07T06:37:54.316Z,13.30
2023-03-07T06:40:20.292Z,13.30
2023-03-07T06:42:46.377Z,13.35
2023-03-07T06:45:12.193Z,13.97
2023-03-07T06:47:38.071Z,12.40
2023-03-07T06:50:04.330Z,13.93
2023-03-07T06:52:30.186Z,12.03
2023-03-07T06:54:56.841Z,11.57
2023-03-07T06:57:24.091Z,12.77
2023-03-07T06:59:50.702Z,12.00
2023-03-07T07:02:17.787Z,11.65
2023-03-07T07:04:45.183Z,11.80
2023-03-07T07:07:11.164Z,13.43
2023-03-07T07:09:37.994Z,13.40
2023-03-07T07:12:08.227Z,12.30
2023-03-07T07:14:39.400Z,11.75
2023-03-07T07:17:05.389Z,12.27
2023-03-07T07:19:31.534Z,11.07
2023-03-07T07:21:57.657Z,11.45
2023-03-07T07:24:23.889Z,11.10
2023-03-07T07:26:49.767Z,11.38
2023-03-07T07:29:15.999Z,11.07
2023-03-07T07:31:42.953Z,11.27
2023-03-07T07:34:08.968Z,11.75
2023-03-07T07:36:36.427Z,10.15
2023-03-07T07:39:04.612Z,11.00
2023-03-07T07:41:31.473Z,10.82
2023-03-07T07:43:59.326Z,10.85
2023-03-07T07:46:30.149Z,9.98
2023-03-07T07:49:02.712Z,11.18
2023-03-07T07:51:28.537Z,10.32
2023-03-07T07:53:57.950Z,10.65
2023-03-07T07:56:24.189Z,10.50
2023-03-07T07:58:50.070Z,11.85
2023-03-07T08:01:17.023Z,10.80
2023-03-07T08:03:43.562Z,9.63
2023-03-07T08:06:10.400Z,9.85
2023-03-07T08:08:38.131Z,10.02
2023-03-07T08:13:46.797Z,10.98
2023-03-07T08:16:14.286Z,10.23
2023-03-07T08:19:17.673Z,10.30
2023-03-07T08:21:43.644Z,9.93
2023-03-07T08:24:09.613Z,11.05
2023-03-07T08:26:35.855Z,9.43
2023-03-07T08:29:01.905Z,12.75
2023-03-07T08:31:27.982Z,9.05
2023-03-07T08:33:54.594Z,10.15
2023-03-07T08:36:20.609Z,9.43
2023-03-07T08:38:50.986Z,8.82
2023-03-07T08:41:17.940Z,10.43
2023-03-07T08:43:43.860Z,8.70
2023-03-07T08:46:09.850Z,8.25
2023-03-07T08:48:36.366Z,10.07
2023-03-07T08:51:06.605Z,8.95
2023-03-07T08:53:32.571Z,8.85
2023-03-07T08:56:01.005Z,8.43
2023-03-07T08:58:26.914Z,7.82
2023-03-07T09:00:52.766Z,7.55
2023-03-07T09:03:18.628Z,8.02
2023-03-07T09:05:45.169Z,7.93
2023-03-07T09:08:11.083Z,7.40
2023-03-07T09:10:36.987Z,7.53
2023-03-07T09:13:02.799Z,7.95
2023-03-07T09:15:29.132Z,7.65
2023-03-07T09:18:16.846Z,8.13
2023-03-07T09:20:42.761Z,7.25
2023-03-07T09:23:10.075Z,8.02
2023-03-07T09:25:36.491Z,7.40
2023-03-07T09:28:03.697Z,6.97
2023-03-07T09:30:29.552Z,6.40
2023-03-07T09:32:56.453Z,6.78
2023-03-07T09:35:22.472Z,6.05
2023-03-07T09:37:48.512Z,6.70
2023-03-07T09:40:24.519Z,6.68
2023-03-07T09:43:04.078Z,5.20
2023-03-07T09:45:30.500Z,6.13
2023-03-07T09:48:15.102Z,5.80
2023-03-07T09:50:43.919Z,5.72
2023-03-07T09:53:15.982Z,6.00
2023-03-07T09:55:42.526Z,6.18
2023-03-07T09:58:16.510Z,5.53
2023-03-07T10:00:42.881Z,5.82
2023-03-07T10:03:12.015Z,5.65
2023-03-07T10:05:43.646Z,6.05
2023-03-07T10:08:13.177Z,5.93
2023-03-07T10:10:41.073Z,6.35
2023-03-07T10:13:25.487Z,5.38
2023-03-07T10:15:53.550Z,6.07
2023-03-07T10:18:50.697Z,5.78
2023-03-07T10:21:23.376Z,5.88
2023-03-07T10:23:55.090Z,6.15
2023-03-07T10:26:24.050Z,5.95
2023-03-07T10:28:50.196Z,6.70
2023-03-07T10:31:22.093Z,6.72
2023-03-07T10:33:48.906Z,5.72
2023-03-07T10:36:14.744Z,6.22
2023-03-07T10:38:51.081Z,5.47
2023-03-07T10:41:20.358Z,6.03
2023-03-07T10:43:47.321Z,6.18
2023-03-07T10:46:24.754Z,5.70
2023-03-07T10:48:52.752Z,6.57
2023-03-07T10:51:35.932Z,4.95
2023-03-07T10:54:02.253Z,5.38
2023-03-07T10:56:28.061Z,5.45
2023-03-07T10:59:00.875Z,5.63
2023-03-07T11:01:27.795Z,5.47
2023-03-07T11:03:58.624Z,5.05
2023-03-07T11:06:44.050Z,5.05
2023-03-07T11:09:18.506Z,5.32
2023-03-07T11:11:48.530Z,4.85
2023-03-07T11:14:16.489Z,4.97
2023-03-07T11:16:53.337Z,4.22
2023-03-07T11:19:44.881Z,4.13
2023-03-07T11:22:21.057Z,3.95
2023-03-07T11:25:07.515Z,3.90
2023-03-07T11:27:35.430Z,3.10
2023-03-07T11:30:19.286Z,3.80
2023-03-07T11:33:11.498Z,2.80
2023-03-07T11:35:40.368Z,2.63
2023-03-07T11:38:06.213Z,1.80
2023-03-07T11:40:40.316Z,1.75
2023-03-07T11:43:12.680Z,1.40
2023-03-07T11:45:47.882Z,1.73
2023-03-07T11:48:29.195Z,1.25
2023-03-07T11:50:57.801Z,1.05
2023-03-07T11:53:38.798Z,1.00
2023-03-07T11:56:11.268Z,1.05
2023-03-07T11:58:56.244Z,0.88
2023-03-07T12:01:32.309Z,0.82
2023-03-07T12:04:12.465Z,0.88
2023-03-07T12:06:38.432Z,0.57
2023-03-07T12:09:16.893Z,0.95
2023-03-07T12:12:04.945Z,0.60
2023-03-07T12:14:40.361Z,0.90
2023-03-07T12:17:12.419Z,1.38
2023-03-07T12:19:48.599Z,0.90
2023-03-07T12:22:14.971Z,0.70
2023-03-07T12:24:59.799Z,1.23
2023-03-07T12:27:30.356Z,1.00
2023-03-07T12:29:59.171Z,1.00
2023-03-07T12:32:27.212Z,0.80
2023-03-07T12:34:55.579Z,1.00
2023-03-07T12:37:24.124Z,1.00
2023-03-07T12:40:03.787Z,1.10
2023-03-07T12:42:33.404Z,1.08
2023-03-07T12:45:14.713Z,1.15
2023-03-07T12:48:09.119Z,0.75
2023-03-07T12:50:34.929Z,1.10
2023-03-07T12:53:23.965Z,1.10
2023-03-07T12:55:55.970Z,1.33
2023-03-07T12:58:39.538Z,1.00
2023-03-07T13:01:17.272Z,1.52
2023-03-07T13:04:13.004Z,1.30
2023-03-07T13:06:41.048Z,1.30
2023-03-07T13:09:08.481Z,1.10
2023-03-07T13:11:35.206Z,1.05
2023-03-07T13:14:01.977Z,1.70
2023-03-07T13:16:30.550Z,1.30
2023-03-07T13:19:26.684Z,1.95
2023-03-07T13:21:53.048Z,1.50
2023-03-07T13:24:29.606Z,1.60
2023-03-07T13:29:57.069Z,1.95
2023-03-07T13:32:42.074Z,1.70
2023-03-07T13:35:11.514Z,1.50
2023-03-07T13:37:48.357Z,2.20
2023-03-07T13:40:26.377Z,1.33
2023-03-07T13:42:52.399Z,1.60
2023-03-07T13:45:36.798Z,1.38
2023-03-07T13:51:12.036Z,1.52
2023-03-07T13:53:55.836Z,1.60
2023-03-07T13:56:28.390Z,1.58
2023-03-07T13:58:59.871Z,1.40
2023-03-07T14:01:36.684Z,1.45
2023-03-07T14:04:33.203Z,1.42
2023-03-07T14:07:24.263Z,0.98
2023-03-07T14:09:53.639Z,1.20
2023-03-07T14:12:22.586Z,1.08
2023-03-07T14:14:49.009Z,1.88
2023-03-07T14:17:46.897Z,1.60
2023-03-07T14:20:22.859Z,1.20
2023-03-07T14:22:58.795Z,1.27
2023-03-07T14:25:31.561Z,1.25
2023-03-07T14:27:58.711Z,1.33
2023-03-07T14:33:17.119Z,1.05
2023-03-07T14:38:25.780Z,1.50
2023-03-07T14:43:53.734Z,1.20
2023-03-07T14:46:42.728Z,0.88
2023-03-07T14:49:28.660Z,1.23
2023-03-07T14:51:54.769Z,1.00
2023-03-07T14:54:33.435Z,0.77
2023-03-07T14:57:00.345Z,0.88
2023-03-07T14:59:29.322Z,0.73
2023-03-07T15:01:56.602Z,0.95
2023-03-07T15:04:27.057Z,0.85
2023-03-07T15:06:55.060Z,1.00
2023-03-07T15:09:23.387Z,0.90
2023-03-07T15:12:01.026Z,1.30
2023-03-07T15:14:27.042Z,1.30
2023-03-07T15:17:04.335Z,1.15
2023-03-07T15:19:47.020Z,0.93
2023-03-07T15:25:02.536Z,1.10
2023-03-07T15:27:30.922Z,1.20
2023-03-07T15:32:42.004Z,1.00
2023-03-07T15:35:08.494Z,1.00
2023-03-07T15:37:35.662Z,0.98
2023-03-07T15:40:08.380Z,1.02
2023-03-07T15:42:50.664Z,1.10
2023-03-07T15:45:38.517Z,0.85
2023-03-07T15:48:34.296Z,1.17
2023-03-07T15:51:01.813Z,1.30
2023-03-07T15:53:33.001Z,1.00
2023-03-07T15:56:03.385Z,1.17
2023-03-07T15:58:30.717Z,1.10
2023-03-07T16:01:03.977Z,1.20
2023-03-07T16:03:31.006Z,1.00
2023-03-07T16:05:58.164Z,1.25
2023-03-07T16:08:24.370Z,1.20
2023-03-07T16:11:01.684Z,1.25
2023-03-07T16:13:32.172Z,1.48
2023-03-07T16:15:59.231Z,1.10
2023-03-07T16:18:29.379Z,1.05
2023-03-07T16:20:57.672Z,1.20
2023-03-07T16:23:23.621Z,1.67
2023-03-07T16:25:49.593Z,1.00
2023-03-07T16:28:15.789Z,1.20
2023-03-07T16:30:44.983Z,1.30
2023-03-07T16:33:14.653Z,1.27
2023-03-07T16:35:41.949Z,1.38
2023-03-07T16:38:08.209Z,1.55
2023-03-07T16:40:34.357Z,1.20
2023-03-07T16:43:00.875Z,1.45
2023-03-07T16:45:31.047Z,1.55
2023-03-07T16:48:13.303Z,1.48
2023-03-07T16:50:40.132Z,2.10
2023-03-07T16:55:51.384Z,1.63
2023-03-07T16:58:24.023Z,1.33
2023-03-07T17:00:54.843Z,1.45
2023-03-07T17:03:21.115Z,1.35
2023-03-07T17:05:47.422Z,1.38
2023-03-07T17:08:14.631Z,1.75
2023-03-07T17:10:49.866Z,0.98
2023-03-07T17:13:17.056Z,1.42
2023-03-07T17:15:44.886Z,1.40
2023-03-07T17:18:22.158Z,1.45
2023-03-07T17:20:47.949Z,1.27
2023-03-07T17:23:14.259Z,1.30
2023-03-07T17:25:40.062Z,1.80
2023-03-07T17:28:08.741Z,1.63
2023-03-07T17:30:34.963Z,1.38
2023-03-07T17:33:03.260Z,1.40
2023-03-07T17:35:30.913Z,1.58
2023-03-07T17:37:56.846Z,1.45
2023-03-07T17:40:23.327Z,1.60
2023-03-07T17:42:50.455Z,1.27
2023-03-07T17:45:16.707Z,1.77
2023-03-07T17:47:55.081Z,1.83
2023-03-07T17:50:24.936Z,1.17
2023-03-07T17:52:51.487Z,1.35
2023-03-07T17:57:59.604Z,1.20
2023-03-07T18:00:25.558Z,1.52
2023-03-07T18:05:33.667Z,1.10
2023-03-07T18:07:59.651Z,1.90
2023-03-07T18:10:32.044Z,1.25
2023-03-07T18:12:57.973Z,1.70
2023-03-07T18:15:24.908Z,1.67
2023-03-07T18:18:25.324Z,1.60
2023-03-07T18:21:00.742Z,1.63
2023-03-07T18:23:27.572Z,1.10
2023-03-07T18:25:57.587Z,1.75
2023-03-07T18:28:25.637Z,1.75
2023-03-07T18:33:57.609Z,1.58
2023-03-07T18:36:24.945Z,1.48
2023-03-07T18:39:01.070Z,1.73
2023-03-07T18:41:27.764Z,2.10
2023-03-07T18:43:54.448Z,2.03
2023-03-07T18:46:21.825Z,2.35
2023-03-07T18:48:47.990Z,2.60
2023-03-07T18:53:58.414Z,3.00
2023-03-07T18:56:25.209Z,3.22
2023-03-07T18:58:58.465Z,3.30
2023-03-07T19:01:26.659Z,3.53
2023-03-07T19:03:54.463Z,2.83
2023-03-07T19:09:03.657Z,2.78
2023-03-07T19:11:30.021Z,3.33
2023-03-07T19:13:56.956Z,3.00
2023-03-07T19:16:26.998Z,2.75
2023-03-07T19:19:14.966Z,2.70
2023-03-07T19:21:40.792Z,3.20
2023-03-07T19:24:07.273Z,2.40
2023-03-07T19:26:33.818Z,3.20
2023-03-07T19:28:59.803Z,3.28
2023-03-07T19:31:29.914Z,3.22
2023-03-07T19:33:57.370Z,3.05
2023-03-07T19:36:27.676Z,2.63
2023-03-07T19:38:54.909Z,3.35
2023-03-07T19:41:21.753Z,3.05
2023-03-07T19:43:47.949Z,3.65
2023-03-07T19:46:14.618Z,3.47
2023-03-07T19:48:52.927Z,3.03
2023-03-07T19:51:20.074Z,2.92
2023-03-07T19:53:47.169Z,3.00
2023-03-07T19:56:14.337Z,3.00
2023-03-07T19:58:40.123Z,2.97
2023-03-07T20:01:10.219Z,3.17
2023-03-07T20:03:36.808Z,3.33
2023-03-07T20:06:03.331Z,3.10
2023-03-07T20:08:32.748Z,3.30
2023-03-07T20:11:09.666Z,2.73
2023-03-07T20:13:35.925Z,3.37
2023-03-07T20:16:01.894Z,2.70
2023-03-07T20:21:16.557Z,3.20
2023-03-07T20:23:43.700Z,3.03
2023-03-07T20:26:13.533Z,2.57
2023-03-07T20:28:39.365Z,2.50
2023-03-07T20:31:08.238Z,3.63
2023-03-07T20:33:35.190Z,3.00
2023-03-07T20:36:03.300Z,2.80
2023-03-07T20:38:29.988Z,3.08
2023-03-07T20:41:02.859Z,2.60
2023-03-07T20:43:29.700Z,2.95
2023-03-07T20:45:55.694Z,3.15
2023-03-07T20:48:26.986Z,2.80
2023-03-07T20:50:53.014Z,3.07
2023-03-07T20:53:19.369Z,2.20
2023-03-07T20:55:45.332Z,2.53
2023-03-07T20:58:11.486Z,2.20
2023-03-07T21:00:37.341Z,2.40
2023-03-07T21:03:05.921Z,2.25
2023-03-07T21:05:32.240Z,2.40
2023-03-07T21:07:58.789Z,1.88
2023-03-07T21:10:25.157Z,1.63
2023-03-07T21:12:52.731Z,2.00
2023-03-07T21:15:19.325Z,2.10
2023-03-07T21:17:57.468Z,2.30
2023-03-07T21:20:23.354Z,2.10
2023-03-07T21:22:49.141Z,1.87
2023-03-07T21:25:15.042Z,2.00
2023-03-07T21:27:41.722Z,2.53
2023-03-07T21:30:08.160Z,1.85
2023-03-07T21:32:34.425Z,1.90
2023-03-07T21:35:00.439Z,1.67
2023-03-07T21:37:26.348Z,1.50
2023-03-07T21:39:52.155Z,1.63
2023-03-07T21:42:18.094Z,1.40
2023-03-07T21:44:44.414Z,1.80
2023-03-07T21:47:12.484Z,1.83
2023-03-07T21:49:38.921Z,1.70
2023-03-07T21:52:04.862Z,1.43
2023-03-07T21:54:30.853Z,1.43
2023-03-07T21:56:56.589Z,2.00
2023-03-07T21:59:22.466Z,1.50
2023-03-07T22:01:48.308Z,1.40
2023-03-07T22:04:14.082Z,1.70
2023-03-07T22:06:39.922Z,1.50
2023-03-07T22:09:05.723Z,1.37
2023-03-07T22:11:31.564Z,1.17
2023-03-07T22:13:57.409Z,2.00
2023-03-07T22:16:23.467Z,1.60
2023-03-07T22:18:55.186Z,1.58
2023-03-07T22:21:20.973Z,1.30
2023-03-07T22:23:46.914Z,1.48
2023-03-07T22:26:12.917Z,1.38
2023-03-07T22:28:40.072Z,1.25
2023-03-07T22:31:10.102Z,1.10
2023-03-07T22:33:36.142Z,1.10
2023-03-07T22:36:03.666Z,1.47
2023-03-07T22:38:29.758Z,1.80
2023-03-07T22:41:02.722Z,1.40
2023-03-07T22:43:30.228Z,1.40
2023-03-07T22:45:56.254Z,0.90
2023-03-07T22:48:30.097Z,1.30
2023-03-07T22:50:56.013Z,1.55
2023-03-07T22:53:22.092Z,1.30
2023-03-07T22:55:48.000Z,2.40
2023-03-07T22:58:14.154Z,1.90
2023-03-07T23:00:40.719Z,1.43
2023-03-07T23:03:06.616Z,1.60
2023-03-07T23:05:32.831Z,1.10
2023-03-07T23:07:59.134Z,1.37
2023-03-07T23:10:25.985Z,1.50
2023-03-07T23:12:52.120Z,1.37
2023-03-07T23:15:18.134Z,1.53
2023-03-07T23:17:52.889Z,1.37
2023-03-07T23:20:19.325Z,1.57
2023-03-07T23:22:45.531Z,1.50
2023-03-07T23:25:11.491Z,1.73
2023-03-07T23:27:37.215Z,1.30
2023-03-07T23:30:04.462Z,1.50
2023-03-07T23:32:30.305Z,1.60
2023-03-07T23:34:56.068Z,1.67
2023-03-07T23:37:21.775Z,2.57
2023-03-07T23:39:47.524Z,1.73
2023-03-07T23:42:13.630Z,1.70
2023-03-07T23:44:39.605Z,1.83
2023-03-07T23:47:05.591Z,1.97
2023-03-07T23:49:31.339Z,1.87
2023-03-07T23:51:57.069Z,2.17
2023-03-07T23:54:23.027Z,2.17
2023-03-07T23:56:48.748Z,2.10
2023-03-07T23:59:14.570Z,1.97
